Time;durP1;ratioP1;P1;durP2;ratioP2;P2;SDS_P1;SDS_P2;PMS_P1;PMS_P2;Temp;Humidity;BMP_temperature;BMP_pressure;BME280_temperature;BME280_humidity;BME280_pressure;Samples;Min_cycle;Max_cycle;Signal;HPM_P1;HPM_P2
2024/01/06 00:01:31;;;;;;;29.67;18.13;;;2.30;99.90;;;;;;5020012;28;20014;-66
2024/01/06 00:03:56;;;;;;;17.67;14.20;;;2.30;99.90;;;;;;5019123;28;20033;-66
2024/01/06 00:06:22;;;;;;;14.80;10.05;;;2.30;99.90;;;;;;5021056;28;20482;-66
2024/01/06 00:08:53;;;;;;;18.67;11.95;;;2.30;99.90;;;;;;5018296;28;20039;-66
2024/01/06 00:11:20;;;;;;;16.15;10.70;;;2.30;99.90;;;;;;5019468;28;20092;-67
2024/01/06 00:13:46;;;;;;;24.17;15.27;;;2.30;99.90;;;;;;5019950;28;20032;-65
2024/01/06 00:16:11;;;;;;;24.85;16.35;;;2.30;99.90;;;;;;5017625;28;20038;-66
2024/01/06 00:18:37;;;;;;;27.83;18.38;;;2.30;99.90;;;;;;5017362;28;20064;-65
2024/01/06 00:21:03;;;;;;;26.15;18.38;;;2.30;99.90;;;;;;5019812;28;20057;-64
2024/01/06 00:23:28;;;;;;;27.35;18.20;;;2.20;99.90;;;;;;5021676;28;20572;-65
2024/01/06 00:25:54;;;;;;;20.73;11.45;;;2.20;99.90;;;;;;5019325;28;20018;-65
2024/01/06 00:28:19;;;;;;;15.23;10.93;;;2.20;99.90;;;;;;5019660;28;20044;-67
2024/01/06 00:30:45;;;;;;;12.75;10.88;;;2.30;99.90;;;;;;5021018;28;20419;-64
2024/01/06 00:33:12;;;;;;;15.52;11.45;;;2.30;99.90;;;;;;5017379;28;20030;-67
2024/01/06 00:35:37;;;;;;;19.75;12.23;;;2.30;99.90;;;;;;5016236;28;20458;-66
2024/01/06 00:38:03;;;;;;;13.27;11.65;;;2.30;99.90;;;;;;5019784;28;20105;-68
2024/01/06 00:40:29;;;;;;;14.32;10.85;;;2.30;99.90;;;;;;5021260;28;20113;-65
2024/01/06 00:42:54;;;;;;;14.70;10.90;;;2.20;99.90;;;;;;5020817;28;20022;-66
2024/01/06 00:45:20;;;;;;;13.27;11.43;;;2.20;99.90;;;;;;5019112;28;20026;-65
2024/01/06 00:47:46;;;;;;;16.80;10.45;;;2.20;99.90;;;;;;5017244;28;20650;-68
2024/01/06 00:50:12;;;;;;;13.55;9.65;;;2.20;99.90;;;;;;5015769;28;20447;-65
2024/01/06 00:52:38;;;;;;;10.52;8.65;;;2.10;99.90;;;;;;5016051;28;20071;-64
2024/01/06 00:55:04;;;;;;;15.80;10.00;;;2.10;99.90;;;;;;5016722;28;20053;-65
2024/01/06 00:57:29;;;;;;;16.63;10.35;;;2.10;99.90;;;;;;5019092;28;20029;-66
2024/01/06 00:59:55;;;;;;;14.88;10.75;;;2.10;99.90;;;;;;5023287;28;20029;-64
2024/01/06 01:02:21;;;;;;;13.75;9.90;;;2.10;99.90;;;;;;5016705;28;20036;-67
2024/01/06 01:04:47;;;;;;;13.88;9.80;;;2.10;99.90;;;;;;5020015;28;20054;-67
2024/01/06 01:07:13;;;;;;;15.90;10.07;;;2.10;99.90;;;;;;5019619;28;20060;-66
2024/01/06 01:09:38;;;;;;;13.55;10.40;;;2.10;99.90;;;;;;5019909;28;20116;-65
2024/01/06 01:12:04;;;;;;;13.52;10.38;;;2.10;99.90;;;;;;5018245;28;20890;-66
2024/01/06 01:14:30;;;;;;;14.38;10.73;;;2.10;99.90;;;;;;5017481;28;20041;-66
2024/01/06 01:16:55;;;;;;;14.27;9.57;;;2.10;99.90;;;;;;5019995;28;20490;-67
2024/01/06 01:19:21;;;;;;;13.43;10.18;;;2.10;99.90;;;;;;5018339;28;20029;-65
2024/01/06 01:21:46;;;;;;;25.17;15.85;;;2.10;99.90;;;;;;5019261;28;20041;-66
2024/01/06 01:24:12;;;;;;;31.95;17.42;;;2.10;99.90;;;;;;5019537;28;20036;-66
2024/01/06 01:26:38;;;;;;;51.00;26.70;;;2.10;99.90;;;;;;5017530;28;20434;-66
2024/01/06 01:29:03;;;;;;;19.92;14.77;;;2.10;99.90;;;;;;5018348;28;20026;-65
2024/01/06 01:31:29;;;;;;;16.05;10.02;;;2.10;99.90;;;;;;5018200;28;20030;-66
2024/01/06 01:33:54;;;;;;;16.95;11.20;;;2.10;99.90;;;;;;5020738;28;20025;-66
2024/01/06 01:36:20;;;;;;;33.10;18.88;;;2.20;99.90;;;;;;5016580;28;20037;-65
2024/01/06 01:38:46;;;;;;;45.47;23.35;;;2.20;99.90;;;;;;5023345;28;20033;-65
2024/01/06 01:41:11;;;;;;;75.82;34.53;;;2.20;99.90;;;;;;5019753;28;20818;-65
2024/01/06 01:43:38;;;;;;;74.07;35.42;;;2.20;99.90;;;;;;5020127;28;20033;-65
2024/01/06 01:46:04;;;;;;;40.08;21.60;;;2.20;99.90;;;;;;5019897;28;20381;-67
2024/01/06 01:48:30;;;;;;;29.33;17.33;;;2.30;99.90;;;;;;5020644;28;20466;-65
2024/01/06 01:50:56;;;;;;;20.88;14.52;;;2.30;99.90;;;;;;5019407;28;20103;-66
2024/01/06 01:53:24;;;;;;;19.45;13.15;;;2.30;99.90;;;;;;5018386;28;20025;-66
2024/01/06 01:55:50;;;;;;;11.63;9.55;;;2.30;99.90;;;;;;5017214;28;20040;-65
2024/01/06 01:58:16;;;;;;;14.48;8.98;;;2.30;99.90;;;;;;5019787;28;20026;-65
2024/01/06 02:00:42;;;;;;;11.88;9.65;;;2.40;99.90;;;;;;5017113;28;20038;-66
2024/01/06 02:03:10;;;;;;;12.57;11.27;;;2.30;99.90;;;;;;4998918;28;20026;-65
2024/01/06 02:05:36;;;;;;;10.32;9.27;;;2.40;99.90;;;;;;5018233;28;20025;-65
2024/01/06 02:08:02;;;;;;;14.43;9.75;;;2.40;99.90;;;;;;5016361;28;20025;-66
2024/01/06 02:10:29;;;;;;;16.75;12.35;;;2.40;99.90;;;;;;5019548;28;20490;-64
2024/01/06 02:12:54;;;;;;;16.27;10.35;;;2.40;99.90;;;;;;5017532;28;20045;-66
2024/01/06 02:15:20;;;;;;;12.30;9.55;;;2.40;99.90;;;;;;5021707;28;20494;-66
2024/01/06 02:17:46;;;;;;;10.60;9.50;;;2.40;99.90;;;;;;5018332;28;20091;-65
2024/01/06 02:20:13;;;;;;;13.13;9.05;;;2.40;99.90;;;;;;5019421;28;20533;-66
2024/01/06 02:22:39;;;;;;;11.80;9.32;;;2.40;99.90;;;;;;5016560;28;20030;-65
2024/01/06 02:25:12;;;;;;;16.30;9.88;;;2.40;99.90;;;;;;5018793;28;20052;-64
2024/01/06 02:27:40;;;;;;;15.18;9.82;;;2.40;99.90;;;;;;5016068;28;20025;-65
2024/01/06 02:30:07;;;;;;;11.90;9.55;;;2.40;99.90;;;;;;5017758;28;20045;-67
2024/01/06 02:32:32;;;;;;;11.43;8.70;;;2.40;99.90;;;;;;5019413;28;20032;-65
2024/01/06 02:34:58;;;;;;;12.65;9.65;;;2.40;99.90;;;;;;5018414;28;20021;-65
2024/01/06 02:37:24;;;;;;;11.43;10.20;;;2.40;99.90;;;;;;5019724;28;20414;-64
2024/01/06 02:39:49;;;;;;;13.80;9.30;;;2.40;99.90;;;;;;5014552;28;20049;-68
2024/01/06 02:42:15;;;;;;;11.32;9.60;;;2.40;99.90;;;;;;5011844;28;20044;-65
2024/01/06 02:44:41;;;;;;;13.68;9.95;;;2.40;99.90;;;;;;5014880;28;20064;-64
2024/01/06 02:47:07;;;;;;;12.90;9.15;;;2.40;99.90;;;;;;5015453;28;20030;-64
2024/01/06 02:49:32;;;;;;;11.27;8.75;;;2.40;99.90;;;;;;5017662;28;20586;-66
2024/01/06 02:51:58;;;;;;;9.25;8.27;;;2.40;99.90;;;;;;5019282;28;20036;-65
2024/01/06 02:54:23;;;;;;;14.13;8.98;;;2.40;99.90;;;;;;5021494;28;20041;-65
2024/01/06 02:56:49;;;;;;;13.27;9.13;;;2.40;99.90;;;;;;5022599;28;20069;-65
2024/01/06 02:59:15;;;;;;;11.93;9.35;;;2.40;99.90;;;;;;5020286;28;20490;-65
2024/01/06 03:01:40;;;;;;;10.20;8.25;;;2.30;99.90;;;;;;5021438;28;20030;-64
2024/01/06 03:04:06;;;;;;;12.02;8.75;;;2.30;99.90;;;;;;5020777;28;20064;-64
2024/01/06 03:06:31;;;;;;;14.27;9.80;;;2.30;99.90;;;;;;5018710;28;20065;-64
2024/01/06 03:08:57;;;;;;;12.55;9.48;;;2.30;99.90;;;;;;5019564;28;20096;-67
2024/01/06 03:11:22;;;;;;;13.55;8.60;;;2.30;99.90;;;;;;5022555;28;20041;-65
2024/01/06 03:13:48;;;;;;;16.35;8.98;;;2.30;99.90;;;;;;5020792;28;20057;-66
2024/01/06 03:16:14;;;;;;;11.00;8.88;;;2.30;99.90;;;;;;5021910;28;20025;-67
2024/01/06 03:18:39;;;;;;;12.15;9.10;;;2.30;99.90;;;;;;5021744;28;20026;-65
2024/01/06 03:21:05;;;;;;;16.30;10.55;;;2.30;99.90;;;;;;5023186;28;20157;-67
2024/01/06 03:23:31;;;;;;;12.43;9.27;;;2.20;99.90;;;;;;5020753;28;20022;-67
2024/01/06 03:25:56;;;;;;;13.85;10.45;;;2.20;99.90;;;;;;5021828;28;20091;-64
2024/01/06 03:28:22;;;;;;;13.35;10.82;;;2.20;99.90;;;;;;5021418;28;20461;-64
2024/01/06 03:30:48;;;;;;;10.57;9.15;;;2.20;99.90;;;;;;5018325;28;20041;-66
2024/01/06 03:33:13;;;;;;;14.65;8.27;;;2.20;99.90;;;;;;5023427;28;20564;-67
2024/01/06 03:35:39;;;;;;;14.20;11.23;;;2.20;99.90;;;;;;5020070;28;20800;-65
2024/01/06 03:38:05;;;;;;;14.07;9.38;;;2.20;99.90;;;;;;5020397;28;20065;-66
2024/01/06 03:40:30;;;;;;;11.32;8.65;;;2.20;99.90;;;;;;5022108;28;20051;-65
2024/01/06 03:42:56;;;;;;;10.80;8.40;;;2.20;99.90;;;;;;5021004;28;20030;-66
2024/01/06 03:45:22;;;;;;;15.60;8.85;;;2.20;99.90;;;;;;5020171;28;20030;-68
2024/01/06 03:47:47;;;;;;;10.52;9.35;;;2.20;99.90;;;;;;5020817;28;20034;-65
2024/01/06 03:50:13;;;;;;;12.52;9.32;;;2.20;99.90;;;;;;5019677;28;20030;-66
2024/01/06 03:52:39;;;;;;;15.20;10.63;;;2.20;99.90;;;;;;5025196;28;20071;-65
2024/01/06 03:55:05;;;;;;;13.40;10.70;;;2.20;99.90;;;;;;5021559;28;20499;-66
2024/01/06 03:57:31;;;;;;;20.17;12.48;;;2.20;99.90;;;;;;5018842;28;20034;-65
2024/01/06 03:59:57;;;;;;;19.50;13.05;;;2.20;99.90;;;;;;5019230;28;20022;-65
2024/01/06 04:02:23;;;;;;;14.70;10.48;;;2.10;99.90;;;;;;5020043;28;20386;-66
2024/01/06 04:04:49;;;;;;;19.92;12.20;;;2.10;99.90;;;;;;5019078;28;20398;-65
2024/01/06 04:07:15;;;;;;;17.85;11.23;;;2.10;99.90;;;;;;5020875;28;20027;-66
2024/01/06 04:09:43;;;;;;;18.95;10.55;;;2.10;99.90;;;;;;5018609;28;20029;-64
2024/01/06 04:12:09;;;;;;;12.45;9.73;;;2.00;99.90;;;;;;5020559;28;20030;-66
2024/01/06 04:14:34;;;;;;;18.48;11.57;;;2.00;99.90;;;;;;5022475;28;20044;-65
2024/01/06 04:17:00;;;;;;;13.60;11.00;;;2.00;99.90;;;;;;5018584;28;20033;-65
2024/01/06 04:19:25;;;;;;;17.13;10.68;;;2.00;99.90;;;;;;5018872;28;20025;-65
2024/01/06 04:21:51;;;;;;;14.65;9.52;;;2.00;99.90;;;;;;5023179;28;20054;-65
2024/01/06 04:24:17;;;;;;;15.68;11.10;;;1.90;99.90;;;;;;5020079;28;20017;-65
2024/01/06 04:26:44;;;;;;;15.00;10.90;;;1.90;99.90;;;;;;5021583;28;20022;-65
2024/01/06 04:29:10;;;;;;;27.73;14.95;;;1.90;99.90;;;;;;5019799;28;20498;-64
2024/01/06 04:31:36;;;;;;;27.63;13.95;;;1.90;99.90;;;;;;5021791;28;20025;-65
2024/01/06 04:34:03;;;;;;;20.55;12.07;;;1.80;99.90;;;;;;5019284;28;20445;-65
2024/01/06 04:36:28;;;;;;;14.13;11.57;;;1.80;99.90;;;;;;5018106;28;20048;-66
2024/01/06 04:38:54;;;;;;;15.30;10.90;;;1.80;99.90;;;;;;5020797;28;20029;-65
2024/01/06 04:41:20;;;;;;;16.63;11.90;;;1.80;99.90;;;;;;5018370;28;20026;-66
2024/01/06 04:43:46;;;;;;;15.85;11.27;;;1.70;99.90;;;;;;5017403;28;20030;-66
2024/01/06 04:46:11;;;;;;;21.17;11.57;;;1.70;99.90;;;;;;5018975;28;20022;-64
2024/01/06 04:48:40;;;;;;;17.95;11.02;;;1.60;99.90;;;;;;5018207;28;20517;-66
2024/01/06 04:51:09;;;;;;;17.77;11.27;;;1.60;99.90;;;;;;5017840;28;20103;-66
2024/01/06 04:53:35;;;;;;;16.20;11.88;;;1.60;99.90;;;;;;5022330;28;20060;-66
2024/01/06 04:56:00;;;;;;;10.60;9.48;;;1.50;99.90;;;;;;5018195;28;20422;-66
2024/01/06 04:58:26;;;;;;;17.30;10.93;;;1.50;99.90;;;;;;5017932;28;20030;-67
2024/01/06 05:00:52;;;;;;;25.08;14.32;;;1.40;99.90;;;;;;5018153;28;20014;-66
2024/01/06 05:03:18;;;;;;;24.92;15.10;;;1.40;99.90;;;;;;5020858;28;20112;-65
2024/01/06 05:05:43;;;;;;;45.22;19.02;;;1.40;99.90;;;;;;5019523;28;20040;-65
2024/01/06 05:08:09;;;;;;;24.77;13.88;;;1.40;99.90;;;;;;5018764;28;20034;-66
2024/01/06 05:10:35;;;;;;;29.08;14.50;;;1.30;99.90;;;;;;5019424;28;20065;-64
2024/01/06 05:13:01;;;;;;;21.10;12.48;;;1.30;99.90;;;;;;5018113;28;20437;-67
2024/01/06 05:15:26;;;;;;;35.65;14.50;;;1.30;99.90;;;;;;5015483;28;20025;-66
2024/01/06 05:17:52;;;;;;;29.27;13.27;;;1.30;99.90;;;;;;5019154;28;20057;-65
2024/01/06 05:20:17;;;;;;;62.17;15.30;;;1.30;99.90;;;;;;5020886;28;20036;-64
2024/01/06 05:22:43;;;;;;;53.80;15.38;;;1.20;99.90;;;;;;5017218;28;20080;-65
2024/01/06 05:25:09;;;;;;;29.17;14.55;;;1.20;99.90;;;;;;5018792;28;20107;-66
2024/01/06 05:27:35;;;;;;;33.28;15.55;;;1.20;99.90;;;;;;5017858;28;20431;-64
2024/01/06 05:30:00;;;;;;;52.78;19.98;;;1.20;99.90;;;;;;5019911;28;20101;-66
2024/01/06 05:32:26;;;;;;;31.85;15.73;;;1.20;99.90;;;;;;5017982;28;20076;-64
2024/01/06 05:34:52;;;;;;;60.15;20.50;;;1.20;99.90;;;;;;5018467;28;20021;-68
2024/01/06 05:37:18;;;;;;;41.17;17.83;;;1.30;99.90;;;;;;5018954;28;20037;-66
2024/01/06 05:39:43;;;;;;;38.22;17.17;;;1.30;99.90;;;;;;5020916;28;20109;-67
2024/01/06 05:42:13;;;;;;;30.30;16.42;;;1.30;99.90;;;;;;5017373;28;20022;-65
2024/01/06 05:44:39;;;;;;;25.37;15.90;;;1.20;99.90;;;;;;5018965;28;20049;-65
2024/01/06 05:47:05;;;;;;;16.77;12.02;;;1.20;99.90;;;;;;5016983;28;20265;-64
2024/01/06 05:49:30;;;;;;;15.93;10.63;;;1.20;99.90;;;;;;5020289;28;20042;-66
2024/01/06 05:51:56;;;;;;;21.00;12.25;;;1.20;99.90;;;;;;5022103;28;20022;-65
2024/01/06 05:54:22;;;;;;;16.88;10.98;;;1.20;99.90;;;;;;5017513;28;20084;-66
2024/01/06 05:56:47;;;;;;;18.77;12.65;;;1.20;99.90;;;;;;5017004;28;20046;-64
2024/01/06 05:59:14;;;;;;;19.13;11.95;;;1.20;99.90;;;;;;5018657;28;20029;-65
2024/01/06 06:01:39;;;;;;;18.80;11.13;;;1.20;99.90;;;;;;5015532;28;20021;-65
2024/01/06 06:04:06;;;;;;;14.90;11.32;;;1.20;99.90;;;;;;5017189;28;20026;-67
2024/01/06 06:06:32;;;;;;;19.08;13.30;;;1.20;99.90;;;;;;5014304;28;20033;-65
2024/01/06 06:08:58;;;;;;;14.88;12.30;;;1.10;99.90;;;;;;5020051;28;20026;-66
2024/01/06 06:11:24;;;;;;;16.17;11.77;;;1.10;99.90;;;;;;5017719;28;20179;-65
2024/01/06 06:13:49;;;;;;;16.52;11.57;;;1.00;99.90;;;;;;5016344;28;20105;-65
2024/01/06 06:16:15;;;;;;;18.58;12.23;;;1.00;99.90;;;;;;5015586;28;20385;-67
2024/01/06 06:18:41;;;;;;;14.50;12.05;;;1.00;99.90;;;;;;5018679;28;20103;-66
2024/01/06 06:21:10;;;;;;;16.63;12.50;;;1.10;99.90;;;;;;5017006;28;20026;-64
2024/01/06 06:23:36;;;;;;;15.45;11.95;;;1.10;99.90;;;;;;5019704;28;20030;-65
2024/01/06 06:26:08;;;;;;;21.58;12.88;;;1.10;99.90;;;;;;5017772;28;20517;-64
2024/01/06 06:28:34;;;;;;;39.63;13.05;;;1.20;99.90;;;;;;5020668;28;20026;-64
2024/01/06 06:31:03;;;;;;;17.63;12.23;;;1.20;99.90;;;;;;5023803;28;20482;-65
2024/01/06 06:33:29;;;;;;;26.17;13.23;;;1.20;99.90;;;;;;5022297;28;20038;-66
2024/01/06 06:35:55;;;;;;;20.58;12.85;;;1.20;99.90;;;;;;5024671;28;20018;-65
2024/01/06 06:38:21;;;;;;;16.05;11.80;;;1.30;99.90;;;;;;5024421;28;20123;-65
2024/01/06 06:40:47;;;;;;;21.38;11.07;;;1.30;99.90;;;;;;5021771;28;20038;-64
2024/01/06 06:43:13;;;;;;;21.50;10.20;;;1.20;99.90;;;;;;5022028;28;20041;-64
2024/01/06 06:45:39;;;;;;;21.58;10.07;;;1.20;99.90;;;;;;5022031;28;20060;-62
2024/01/06 06:48:05;;;;;;;16.25;10.40;;;1.20;99.90;;;;;;5023011;28;20587;-65
2024/01/06 06:50:30;;;;;;;13.45;9.48;;;1.20;99.90;;;;;;5021398;28;20538;-64
2024/01/06 06:52:56;;;;;;;30.00;9.93;;;1.20;99.90;;;;;;5020207;28;20508;-65
2024/01/06 06:55:22;;;;;;;53.55;13.10;;;1.20;99.90;;;;;;5020326;28;20036;-67
2024/01/06 06:57:47;;;;;;;77.35;14.20;;;1.20;99.90;;;;;;5019309;28;20205;-65
2024/01/06 07:00:14;;;;;;;100.32;15.40;;;1.20;99.90;;;;;;5020124;28;20386;-63
2024/01/06 07:02:40;;;;;;;121.70;17.15;;;1.30;99.90;;;;;;5022009;28;20037;-65
2024/01/06 07:05:06;;;;;;;65.20;13.40;;;1.30;99.90;;;;;;5020192;28;20022;-65
2024/01/06 07:07:33;;;;;;;96.03;14.50;;;1.30;99.90;;;;;;5019793;28;20029;-67
2024/01/06 07:10:04;;;;;;;82.30;13.57;;;1.30;99.90;;;;;;5022128;28;20044;-66
2024/01/06 07:12:31;;;;;;;62.53;12.73;;;1.30;99.90;;;;;;5022655;28;20034;-67
2024/01/06 07:14:58;;;;;;;102.90;14.70;;;1.40;99.90;;;;;;5020903;28;20034;-66
2024/01/06 07:17:24;;;;;;;122.60;13.45;;;1.40;99.90;;;;;;5022268;28;20096;-66
2024/01/06 07:19:50;;;;;;;111.68;13.98;;;1.40;99.90;;;;;;5020685;28;20526;-65
2024/01/06 07:22:18;;;;;;;84.47;13.60;;;1.40;99.90;;;;;;5020409;28;20022;-65
2024/01/06 07:24:44;;;;;;;109.63;13.48;;;1.40;99.90;;;;;;5025371;28;20121;-65
2024/01/06 07:27:10;;;;;;;90.40;13.20;;;1.40;99.90;;;;;;5022688;28;20562;-65
2024/01/06 07:29:35;;;;;;;110.10;16.27;;;1.40;99.90;;;;;;5021562;28;20041;-65
2024/01/06 07:32:01;;;;;;;106.43;16.60;;;1.50;99.90;;;;;;5024093;28;20022;-65
2024/01/06 07:34:27;;;;;;;101.28;14.60;;;1.50;99.90;;;;;;5022325;28;20028;-66
2024/01/06 07:36:53;;;;;;;148.45;16.67;;;1.50;99.90;;;;;;5026261;28;20022;-63
2024/01/06 07:39:18;;;;;;;88.60;13.23;;;1.50;99.90;;;;;;5023244;28;20026;-65
2024/01/06 07:41:46;;;;;;;100.55;14.27;;;1.60;99.90;;;;;;5022793;28;20726;-65
2024/01/06 07:44:12;;;;;;;116.55;13.63;;;1.60;99.90;;;;;;5019582;28;20607;-67
2024/01/06 07:46:40;;;;;;;133.85;15.25;;;1.60;99.90;;;;;;5022532;28;20033;-65
2024/01/06 07:49:06;;;;;;;80.70;14.40;;;1.60;99.90;;;;;;5024090;28;20025;-67
2024/01/06 07:51:32;;;;;;;171.05;15.02;;;1.60;99.90;;;;;;5022698;28;20021;-66
2024/01/06 07:53:58;;;;;;;135.77;14.25;;;1.70;99.90;;;;;;5024613;28;20393;-64
2024/01/06 07:56:24;;;;;;;121.72;14.07;;;1.70;99.90;;;;;;5024326;28;20033;-66
2024/01/06 07:58:49;;;;;;;132.43;12.45;;;1.70;99.90;;;;;;5020503;28;20072;-66
2024/01/06 08:01:15;;;;;;;106.88;11.25;;;1.70;99.90;;;;;;5021291;28;20080;-66
2024/01/06 08:03:41;;;;;;;146.15;15.57;;;1.70;99.90;;;;;;5024205;28;20033;-65
2024/01/06 08:06:06;;;;;;;127.80;11.65;;;1.70;99.90;;;;;;5021501;28;20065;-66
2024/01/06 08:08:32;;;;;;;94.32;11.43;;;1.70;99.90;;;;;;5024290;28;20393;-66
2024/01/06 08:10:58;;;;;;;94.65;12.48;;;1.80;99.90;;;;;;5023433;28;20033;-66
2024/01/06 08:13:23;;;;;;;113.10;12.43;;;1.80;99.90;;;;;;5024019;28;20369;-66
2024/01/06 08:15:49;;;;;;;86.82;10.75;;;1.80;99.90;;;;;;5026000;28;20033;-65
2024/01/06 08:18:14;;;;;;;101.85;10.85;;;1.80;99.90;;;;;;5025015;28;20060;-65
2024/01/06 08:20:40;;;;;;;107.07;12.40;;;1.90;99.90;;;;;;5022938;28;20750;-65
2024/01/06 08:23:06;;;;;;;90.38;10.02;;;1.90;99.90;;;;;;5020284;28;20036;-64
2024/01/06 08:25:31;;;;;;;97.20;12.10;;;1.90;99.90;;;;;;5026580;28;20486;-65
2024/01/06 08:27:57;;;;;;;99.03;10.80;;;2.00;99.90;;;;;;5026272;28;20104;-65
2024/01/06 08:30:23;;;;;;;105.63;11.80;;;2.00;99.90;;;;;;5025834;28;20030;-67
2024/01/06 08:32:49;;;;;;;111.97;12.20;;;2.00;99.90;;;;;;5020250;28;20038;-66
2024/01/06 08:35:16;;;;;;;92.43;9.98;;;2.10;99.90;;;;;;5026148;28;20033;-66
2024/01/06 08:37:43;;;;;;;68.10;11.07;;;2.10;99.90;;;;;;5019167;28;20391;-65
2024/01/06 08:40:09;;;;;;;74.28;10.60;;;2.10;99.90;;;;;;5023798;28;20025;-65
2024/01/06 08:42:34;;;;;;;70.97;9.52;;;2.20;99.90;;;;;;5022953;28;20096;-66
2024/01/06 08:45:00;;;;;;;56.35;8.38;;;2.20;99.90;;;;;;5022860;28;20057;-65
2024/01/06 08:47:26;;;;;;;50.78;9.68;;;2.30;99.90;;;;;;5020808;28;20391;-65
2024/01/06 08:49:51;;;;;;;82.60;9.35;;;2.30;99.90;;;;;;5021959;28;20551;-67
2024/01/06 08:52:17;;;;;;;86.65;9.73;;;2.30;99.90;;;;;;5020760;28;20018;-66
2024/01/06 08:54:42;;;;;;;79.07;9.68;;;2.40;99.90;;;;;;5023554;28;20044;-63
2024/01/06 08:57:08;;;;;;;66.22;9.88;;;2.40;99.90;;;;;;5022514;28;20034;-65
2024/01/06 08:59:34;;;;;;;42.90;9.13;;;2.40;99.90;;;;;;5020623;28;20030;-65
2024/01/06 09:02:01;;;;;;;12.73;7.47;;;2.40;99.90;;;;;;5024406;28;20494;-66
2024/01/06 09:04:26;;;;;;;149.80;13.73;;;2.40;99.90;;;;;;5022169;28;20026;-66
2024/01/06 09:06:52;;;;;;;54.20;9.80;;;2.50;99.90;;;;;;5017803;28;20032;-66
2024/01/06 09:09:18;;;;;;;58.55;10.82;;;2.40;99.90;;;;;;5019085;28;20485;-67
2024/01/06 09:11:44;;;;;;;44.90;11.30;;;2.40;99.90;;;;;;5022266;28;20410;-64
2024/01/06 09:14:10;;;;;;;42.17;8.32;;;2.50;99.90;;;;;;5020048;28;20058;-64
2024/01/06 09:16:36;;;;;;;68.85;8.35;;;2.50;99.90;;;;;;5020835;28;20026;-66
2024/01/06 09:19:02;;;;;;;40.33;7.95;;;2.50;99.90;;;;;;5020951;28;20045;-66
2024/01/06 09:21:28;;;;;;;32.63;7.60;;;2.60;99.90;;;;;;5022264;28;20049;-66
2024/01/06 09:23:53;;;;;;;50.38;8.70;;;2.50;99.90;;;;;;5021880;28;20029;-65
2024/01/06 09:26:19;;;;;;;44.17;8.25;;;2.50;99.90;;;;;;5021063;28;20068;-65
2024/01/06 09:28:45;;;;;;;75.05;11.60;;;2.60;99.90;;;;;;5021841;28;20067;-65
2024/01/06 09:31:10;;;;;;;46.28;9.70;;;2.60;99.90;;;;;;5018889;28;20026;-67
2024/01/06 09:33:36;;;;;;;26.67;9.30;;;2.70;99.90;;;;;;5019457;28;20029;-65
2024/01/06 09:36:02;;;;;;;51.65;9.55;;;2.70;99.90;;;;;;5019398;28;20809;-66
2024/01/06 09:38:28;;;;;;;76.63;9.25;;;2.70;99.90;;;;;;5019796;28;20033;-66
2024/01/06 09:40:55;;;;;;;50.17;10.82;;;2.80;99.90;;;;;;5017091;28;20030;-65
2024/01/06 09:43:21;;;;;;;45.47;9.02;;;2.80;99.90;;;;;;5018720;28;20481;-65
2024/01/06 09:46:00;;;;;;;43.63;12.30;;;2.90;99.90;;;;;;5019015;28;20506;-65
2024/01/06 09:48:31;;;;;;;44.63;10.45;;;2.90;99.90;;;;;;5017013;28;20038;-64
2024/01/06 09:51:01;;;;;;;59.43;14.50;;;2.80;99.90;;;;;;5022750;28;20029;-64
2024/01/06 09:53:33;;;;;;;59.33;12.93;;;2.70;99.90;;;;;;5022630;28;20498;-65
2024/01/06 09:55:59;;;;;;;95.15;15.27;;;2.70;99.90;;;;;;5015510;28;20461;-63
2024/01/06 09:58:29;;;;;;;79.05;11.82;;;2.80;99.90;;;;;;5017317;28;20029;-66
2024/01/06 10:00:56;;;;;;;99.40;10.50;;;2.80;99.90;;;;;;5019613;28;20042;-66
2024/01/06 10:03:21;;;;;;;37.78;8.07;;;2.90;99.90;;;;;;5026338;28;20025;-68
2024/01/06 10:05:48;;;;;;;203.20;11.00;;;3.10;99.90;;;;;;5021659;28;20048;-66
2024/01/06 10:08:14;;;;;;;143.88;11.27;;;3.20;99.90;;;;;;5024152;28;20076;-65
2024/01/06 10:10:39;;;;;;;124.60;9.90;;;3.20;99.90;;;;;;5023404;28;20033;-65
2024/01/06 10:13:06;;;;;;;64.18;9.45;;;3.20;99.90;;;;;;5022789;28;20021;-65
2024/01/06 10:15:31;;;;;;;96.13;11.10;;;3.30;99.90;;;;;;5021187;28;20037;-65
2024/01/06 10:17:58;;;;;;;101.75;10.27;;;3.30;99.90;;;;;;5021014;28;20042;-66
2024/01/06 10:20:25;;;;;;;106.72;10.35;;;3.30;99.90;;;;;;5023427;28;20545;-66
2024/01/06 10:22:52;;;;;;;116.13;9.13;;;3.30;99.90;;;;;;5024699;28;20583;-66
2024/01/06 10:25:18;;;;;;;112.47;10.52;;;3.20;99.90;;;;;;5026590;28;20067;-66
2024/01/06 10:27:44;;;;;;;88.05;7.85;;;3.10;99.90;;;;;;5026540;28;20022;-65
2024/01/06 10:30:10;;;;;;;71.32;7.70;;;3.10;99.90;;;;;;5023419;28;20113;-66
2024/01/06 10:32:37;;;;;;;87.75;10.63;;;3.20;99.90;;;;;;5021981;28;20029;-65
2024/01/06 10:35:03;;;;;;;119.07;11.35;;;3.10;99.90;;;;;;5020137;28;20394;-66
2024/01/06 10:37:30;;;;;;;112.45;10.57;;;3.10;99.90;;;;;;5022702;28;20022;-64
2024/01/06 10:40:25;;;;;;;107.50;10.15;;;3.10;99.90;;;;;;5020992;28;20144;-67
2024/01/06 10:42:52;;;;;;;19.80;8.25;;;3.10;99.90;;;;;;5013855;28;20030;-67
2024/01/06 10:45:18;;;;;;;8.95;7.40;;;3.20;99.90;;;;;;5024765;28;20100;-65
2024/01/06 10:47:44;;;;;;;40.83;8.57;;;3.20;99.90;;;;;;5023493;28;20509;-65
2024/01/06 10:50:10;;;;;;;11.85;7.28;;;3.40;99.90;;;;;;5020394;28;20041;-65
2024/01/06 10:52:38;;;;;;;10.77;7.40;;;3.50;99.90;;;;;;5020134;28;20030;-64
2024/01/06 10:55:05;;;;;;;52.97;8.50;;;3.60;99.90;;;;;;5023289;28;20393;-65
2024/01/06 10:57:31;;;;;;;10.18;6.50;;;3.70;99.90;;;;;;5022239;28;20605;-66
2024/01/06 10:59:58;;;;;;;20.25;7.55;;;3.70;99.90;;;;;;5021490;28;20457;-67
2024/01/06 11:02:25;;;;;;;49.88;9.07;;;3.80;99.90;;;;;;5019247;28;20425;-65
2024/01/06 11:04:51;;;;;;;16.33;7.88;;;3.80;99.90;;;;;;5020336;28;20121;-66
2024/01/06 11:07:19;;;;;;;59.95;7.80;;;3.90;99.90;;;;;;5020171;28;20060;-64
2024/01/06 11:10:12;;;;;;;13.70;7.63;;;4.10;99.90;;;;;;5021787;28;20440;-65
2024/01/06 11:12:37;;;;;;;20.55;7.78;;;4.20;99.90;;;;;;5017580;28;20030;-65
2024/01/06 11:15:04;;;;;;;9.70;6.97;;;4.30;99.90;;;;;;5020657;28;20076;-64
2024/01/06 11:17:53;;;;;;;34.58;8.85;;;4.40;99.90;;;;;;5023355;28;20078;-66
2024/01/06 11:20:23;;;;;;;19.23;7.10;;;4.30;99.90;;;;;;5021864;28;20030;-64
2024/01/06 11:22:50;;;;;;;12.70;7.75;;;4.30;99.90;;;;;;5020584;28;20092;-65
2024/01/06 11:25:18;;;;;;;8.95;7.18;;;4.40;99.90;;;;;;5020206;28;20022;-65
2024/01/06 11:27:45;;;;;;;11.77;8.10;;;4.40;99.90;;;;;;5019721;28;20062;-66
2024/01/06 11:30:26;;;;;;;8.73;7.88;;;4.40;99.90;;;;;;5023483;28;20496;-64
2024/01/06 11:32:53;;;;;;;;;;;4.50;99.90;;;;;;5019053;28;20025;-65
2024/01/06 11:35:21;;;;;;;10.15;7.70;;;4.50;99.90;;;;;;5020741;28;19923;-65
2024/01/06 11:37:46;;;;;;;11.43;8.43;;;4.60;99.90;;;;;;5021939;28;20030;-66
2024/01/06 11:40:21;;;;;;;11.00;9.15;;;4.70;99.90;;;;;;5021385;28;20056;-65
2024/01/06 11:43:03;;;;;;;10.45;8.70;;;4.90;99.90;;;;;;5023065;28;20044;-66
2024/01/06 11:45:29;;;;;;;10.45;9.45;;;5.00;99.90;;;;;;5025204;28;20498;-65
2024/01/06 11:47:58;;;;;;;14.27;8.25;;;5.10;99.90;;;;;;5020736;28;20037;-67
2024/01/06 11:50:25;;;;;;;8.50;7.60;;;5.10;99.90;;;;;;5021732;28;20096;-65
2024/01/06 11:52:52;;;;;;;8.65;7.78;;;5.20;99.90;;;;;;5023500;28;20393;-65
2024/01/06 11:55:18;;;;;;;9.75;8.75;;;5.20;99.90;;;;;;5023768;28;20040;-64
2024/01/06 11:57:44;;;;;;;13.90;9.77;;;5.10;99.90;;;;;;5023289;28;20622;-64
2024/01/06 12:00:11;;;;;;;10.60;9.43;;;5.00;99.90;;;;;;5020372;28;20026;-66
2024/01/06 12:02:37;;;;;;;11.13;8.80;;;5.00;99.90;;;;;;5023363;28;20140;-67
2024/01/06 12:05:03;;;;;;;11.82;9.48;;;5.00;99.90;;;;;;5020956;28;20117;-64
2024/01/06 12:07:28;;;;;;;10.50;9.38;;;5.00;99.90;;;;;;5020606;28;20026;-66
2024/01/06 12:10:02;;;;;;;10.73;9.63;;;4.90;99.90;;;;;;5021526;28;20055;-66
2024/01/06 12:12:28;;;;;;;11.60;9.93;;;4.90;99.90;;;;;;5018854;28;20141;-65
2024/01/06 12:14:53;;;;;;;12.35;11.07;;;4.90;99.90;;;;;;5017581;28;20539;-65
2024/01/06 12:17:21;;;;;;;11.63;9.60;;;4.90;99.90;;;;;;5021143;28;20505;-65
2024/01/06 12:19:47;;;;;;;10.55;9.55;;;4.80;99.90;;;;;;5023805;28;20120;-65
2024/01/06 12:22:15;;;;;;;16.33;13.32;;;5.00;99.90;;;;;;5024148;28;20112;-65
2024/01/06 12:24:42;;;;;;;21.58;15.73;;;5.10;99.90;;;;;;5020253;28;20065;-65
2024/01/06 12:27:11;;;;;;;17.63;15.40;;;5.20;99.90;;;;;;5020778;28;20026;-63
2024/01/06 12:29:40;;;;;;;15.00;13.50;;;5.30;99.90;;;;;;5022678;28;20038;-64
2024/01/06 12:32:06;;;;;;;17.77;16.25;;;5.30;99.90;;;;;;5023343;28;20033;-65
2024/01/06 12:34:31;;;;;;;14.77;13.27;;;5.30;99.90;;;;;;5021774;28;20038;-67
2024/01/06 12:36:58;;;;;;;37.58;22.05;;;5.40;99.90;;;;;;5024593;28;20018;-66